KBVS Airport Information

Runway Information
Runway 04 Length 3000 ft width 60 ft
Elevation 84 ft Threshold 0 ft Heading 56
Runway 22 Length 3000 ft Width 60 ft
Elevation 97 ft Threshold 0 ft Heading 236
Runway 10 Length 5477 ft width 100 ft
Elevation 144 ft Threshold 0 ft Heading 126
Runway 28 Length 5477 ft Width 100 ft
Elevation 98 ft Threshold 0 ft Heading 306
Airport Frequencies
Type A/D Name WHIDBEY AP Frequency 120.7 MHZ
Type AWOS Name AWOS 3 Frequency 121.125 MHZ
Type UNIC Name CTAF/UNICO Frequency 123.075 MHZ
Airport Navaids
Airport Weather Information & NOTAM
ADDS - METARS form results

(1108 UTC 23 January 2019)
Data provider http://aviationweather.gov/metar/data/
 
METAR text: KBVS 231055Z AUTO 33004KT 5SM BR SCT004 BKN019 OVC029 07/06 A2993 RMK A01 P0012
Conditions at: KBVS (BURLINGTON/MT V , WA, US) observed 1055 UTC 23 January 2019
Temperature: 7.0°C (45°F)
Dewpoint: 6.0°C (43°F) [RH = 93%]
Pressure (altimeter): 29.93 inches Hg (1013.6 mb)
Winds: from the NNW (330 degrees) at 5 MPH (4 knots; 2.1 m/s)
Visibility: 5 miles ( 8 km)
Ceiling: 1900 feet AGL
Clouds: scattered clouds at 400 feet AGL
broken clouds at 1900 feet AGL
overcast cloud deck at 2900 feet AGL
Weather: BR  (mist)

METAR text: KBVS 231035Z AUTO 34004G13KT 1 3/4SM BR OVC004 07/06 A2992 RMK A01
Conditions at: KBVS (BURLINGTON/MT V , WA, US) observed 1035 UTC 23 January 2019
Temperature: 7.0°C (45°F)
Dewpoint: 6.0°C (43°F) [RH = 93%]
Pressure (altimeter): 29.92 inches Hg (1013.3 mb)
Winds: from the NNW (340 degrees) at 5 MPH (4 knots; 2.1 m/s)
gusting to 15 MPH (13 knots; 6.7 m/s)
Visibility: 1.75 miles (2.82 km)
Ceiling: 400 feet AGL
Clouds: overcast cloud deck at 400 feet AGL
Weather: BR  (mist)

METAR text: KBVS 231015Z AUTO VRB04KT 3SM BR OVC006 09/08 A2989 RMK A01
Conditions at: KBVS (BURLINGTON/MT V , WA, US) observed 1015 UTC 23 January 2019
Temperature: 9.0°C (48°F)
Dewpoint: 8.0°C (46°F) [RH = 93%]
Pressure (altimeter): 29.89 inches Hg (1012.3 mb)
Winds: variable direction winds at 5 MPH (4 knots; 2.1 m/s)
Visibility: 3 miles ( 5 km)
Ceiling: 600 feet AGL
Clouds: overcast cloud deck at 600 feet AGL
Weather: BR  (mist)